Time;durP1;ratioP1;P1;durP2;ratioP2;P2;SDS_P1;SDS_P2;PMS_P1;PMS_P2;Temp;Humidity;BMP_temperature;BMP_pressure;BME280_temperature;BME280_humidity;BME280_pressure;Samples;Min_cycle;Max_cycle;Signal;HPM_P1;HPM_P2
2021/01/19 00:02:03;;;;;;;48.08;28.80;;;2.70;76.40;;;;;;5075825;28;20562;-54
2021/01/19 00:04:29;;;;;;;52.75;33.30;;;2.90;76.00;;;;;;5064608;28;20059;-49
2021/01/19 00:06:54;;;;;;;58.53;35.33;;;2.70;77.60;;;;;;5076262;28;20052;-52
2021/01/19 00:09:20;;;;;;;46.35;29.95;;;2.80;78.50;;;;;;5082224;28;20033;-49
2021/01/19 00:11:46;;;;;;;49.38;31.50;;;2.80;75.70;;;;;;5080058;28;20036;-52
2021/01/19 00:14:11;;;;;;;54.17;32.00;;;2.80;76.50;;;;;;5073663;28;20025;-51
2021/01/19 00:16:37;;;;;;;47.05;30.10;;;;;;;;;;5076373;28;20032;-56
2021/01/19 00:19:03;;;;;;;44.58;29.20;;;2.90;75.30;;;;;;5082112;28;20034;-50
2021/01/19 00:21:29;;;;;;;47.13;30.63;;;3.10;78.90;;;;;;5073391;28;20483;-48
2021/01/19 00:23:55;;;;;;;67.35;40.10;;;3.20;82.30;;;;;;5073511;28;20037;-52
2021/01/19 00:26:20;;;;;;;62.17;40.30;;;3.20;72.80;;;;;;5073256;28;20505;-48
2021/01/19 00:28:46;;;;;;;44.17;28.25;;;3.20;73.70;;;;;;5073412;28;20093;-51
2021/01/19 00:31:12;;;;;;;50.83;32.45;;;2.90;74.70;;;;;;5073407;28;20040;-48
2021/01/19 00:33:37;;;;;;;66.70;42.35;;;2.90;78.40;;;;;;4988727;28;20041;-50
2021/01/19 00:36:03;;;;;;;80.95;48.10;;;2.80;79.30;;;;;;5073578;28;20043;-50
2021/01/19 00:38:29;;;;;;;74.45;44.85;;;3.10;78.30;;;;;;5037993;28;20071;-52
2021/01/19 00:40:55;;;;;;;54.22;34.17;;;3.20;77.10;;;;;;5073112;28;20059;-48
2021/01/19 00:43:21;;;;;;;57.17;35.13;;;3.20;74.50;;;;;;5073128;28;20064;-53
2021/01/19 00:45:47;;;;;;;68.47;40.58;;;;;;;;;;5073386;28;20032;-49
2021/01/19 00:48:13;;;;;;;50.38;33.80;;;;;;;;;;5073149;28;20025;-46
2021/01/19 00:50:38;;;;;;;82.20;46.72;;;3.50;96.40;;;;;;5073021;28;20072;-55
2021/01/19 00:53:04;;;;;;;65.93;38.80;;;3.50;92.40;;;;;;5073056;28;20071;-52
2021/01/19 00:55:30;;;;;;;50.97;31.42;;;3.40;92.20;;;;;;5072854;28;20033;-51
2021/01/19 00:57:56;;;;;;;47.92;29.30;;;3.00;80.50;;;;;;5076706;28;20048;-52
2021/01/19 01:00:22;;;;;;;45.45;29.48;;;3.00;90.70;;;;;;5077046;28;20033;-53
2021/01/19 01:02:47;;;;;;;41.90;29.85;;;3.00;81.60;;;;;;5076570;28;20086;-53
2021/01/19 01:05:13;;;;;;;44.22;27.85;;;3.00;82.50;;;;;;5077061;28;20064;-53
2021/01/19 01:07:41;;;;;;;42.45;28.85;;;2.90;90.80;;;;;;5042002;28;20040;-48
2021/01/19 01:10:11;;;;;;;50.10;33.22;;;3.10;85.40;;;;;;5073485;28;20043;-50
2021/01/19 01:12:37;;;;;;;59.60;39.75;;;3.30;95.30;;;;;;5076675;28;20503;-47
2021/01/19 01:15:04;;;;;;;92.10;57.70;;;3.40;95.40;;;;;;5080831;28;20028;-48
2021/01/19 01:17:37;;;;;;;83.22;51.03;;;3.30;76.50;;;;;;5035580;28;20041;-53
2021/01/19 01:20:07;;;;;;;73.88;47.88;;;;;;;;;;5081842;28;20435;-53
2021/01/19 01:22:45;;;;;;;44.42;29.52;;;3.50;75.30;;;;;;4992057;28;20127;-49
2021/01/19 01:25:15;;;;;;;36.10;25.08;;;3.50;74.60;;;;;;5076389;28;20024;-50
2021/01/19 01:27:41;;;;;;;43.65;25.60;;;3.60;73.90;;;;;;5076470;28;20028;-52
2021/01/19 01:30:09;;;;;;;37.38;24.20;;;3.70;73.80;;;;;;5080858;28;20067;-53
2021/01/19 01:32:39;;;;;;;42.10;25.50;;;3.80;73.50;;;;;;5032916;28;20407;-53
2021/01/19 01:35:06;;;;;;;42.80;26.30;;;3.80;73.50;;;;;;5092264;28;20369;-49
2021/01/19 01:37:32;;;;;;;42.38;26.38;;;3.50;75.10;;;;;;5061332;28;20430;-47
2021/01/19 01:39:57;;;;;;;42.03;27.10;;;3.30;76.80;;;;;;5096337;28;20093;-49
2021/01/19 01:42:24;;;;;;;32.65;22.02;;;3.10;77.10;;;;;;5027761;28;20036;-49
2021/01/19 01:44:51;;;;;;;32.33;20.58;;;3.20;77.00;;;;;;5096293;28;20480;-53
2021/01/19 01:47:23;;;;;;;45.65;30.50;;;3.20;77.00;;;;;;5096643;28;20028;-49
2021/01/19 01:49:51;;;;;;;63.05;40.30;;;3.20;77.90;;;;;;5094170;28;20036;-50
2021/01/19 01:52:20;;;;;;;90.13;49.20;;;3.10;78.50;;;;;;5087103;28;20075;-54
2021/01/19 01:54:50;;;;;;;85.43;49.00;;;3.20;78.80;;;;;;5082650;28;20357;-50
2021/01/19 01:57:17;;;;;;;77.75;46.65;;;3.30;78.30;;;;;;5040960;28;20129;-55
2021/01/19 01:59:47;;;;;;;69.18;40.28;;;3.40;77.10;;;;;;5076283;28;20107;-52
2021/01/19 02:02:13;;;;;;;62.05;38.45;;;3.10;77.70;;;;;;5075927;28;20448;-56
2021/01/19 02:04:39;;;;;;;54.22;35.45;;;3.00;78.30;;;;;;5007719;28;20094;-49
2021/01/19 02:07:17;;;;;;;61.38;37.80;;;3.10;78.10;;;;;;5076023;28;20037;-50
2021/01/19 02:09:52;;;;;;;55.97;34.80;;;3.20;78.10;;;;;;5074831;28;20036;-52
2021/01/19 02:12:26;;;;;;;47.20;28.48;;;3.20;77.30;;;;;;5075714;28;20491;-53
2021/01/19 02:15:03;;;;;;;52.67;34.13;;;3.30;76.30;;;;;;5075714;28;20036;-53
2021/01/19 02:17:40;;;;;;;58.40;35.42;;;3.50;76.20;;;;;;5075670;28;20028;-49
2021/01/19 02:20:21;;;;;;;55.90;34.00;;;3.50;76.60;;;;;;5075668;28;20162;-50
2021/01/19 02:23:05;;;;;;;52.90;35.75;;;3.50;76.20;;;;;;5078255;28;20048;-54
2021/01/19 02:25:51;;;;;;;58.58;35.83;;;3.40;75.90;;;;;;5075483;28;20349;-52
2021/01/19 02:28:31;;;;;;;73.60;45.13;;;3.30;76.30;;;;;;5075657;28;20060;-52
2021/01/19 02:31:21;;;;;;;71.65;44.40;;;2.90;77.80;;;;;;5075128;28;20396;-54
2021/01/19 02:33:55;;;;;;;61.65;38.38;;;;;;;;;;5078860;28;20033;-52
2021/01/19 02:36:41;;;;;;;69.50;41.67;;;2.70;78.00;;;;;;5078559;28;20039;-50
2021/01/19 02:39:13;;;;;;;69.10;41.10;;;2.50;79.50;;;;;;5077574;28;20407;-48
2021/01/19 02:41:41;;;;;;;;;;;2.00;91.10;;;;;;5084650;28;20032;-53
2021/01/19 02:44:22;;;;;;;57.50;33.65;;;1.60;83.50;;;;;;5078765;28;19912;-50
2021/01/19 02:46:55;;;;;;;45.28;28.45;;;1.60;83.90;;;;;;5082513;28;20368;-52
2021/01/19 02:49:21;;;;;;;51.08;32.95;;;1.90;83.80;;;;;;5089074;28;20020;-51
2021/01/19 02:51:49;;;;;;;51.03;32.78;;;2.20;86.30;;;;;;5075088;28;20539;-47
2021/01/19 02:54:16;;;;;;;51.22;33.58;;;2.30;81.60;;;;;;5074780;28;20028;-54
2021/01/19 02:57:20;;;;;;;53.50;31.85;;;2.70;91.60;;;;;;5075341;28;20039;-54
2021/01/19 03:00:04;;;;;;;45.92;30.75;;;2.70;80.70;;;;;;5043506;28;20071;-47
2021/01/19 03:02:33;;;;;;;56.03;34.53;;;3.00;86.00;;;;;;5039427;28;20094;-48
2021/01/19 03:05:01;;;;;;;45.08;29.77;;;2.90;78.90;;;;;;5074726;28;20472;-51
2021/01/19 03:07:29;;;;;;;45.17;29.13;;;2.80;79.30;;;;;;5071784;28;20040;-45
2021/01/19 03:09:58;;;;;;;48.92;31.08;;;3.10;78.90;;;;;;5074865;28;20032;-48
2021/01/19 03:12:26;;;;;;;49.60;33.25;;;3.20;83.80;;;;;;5074845;28;20040;-50
2021/01/19 03:14:53;;;;;;;49.33;34.33;;;3.10;80.00;;;;;;5074588;28;20147;-51
2021/01/19 03:17:19;;;;;;;45.28;28.48;;;3.00;79.50;;;;;;5074643;28;20124;-53
2021/01/19 03:19:48;;;;;;;42.38;26.88;;;2.70;79.40;;;;;;5075033;28;20468;-53
2021/01/19 03:22:14;;;;;;;35.97;23.80;;;2.20;81.60;;;;;;5074541;28;20039;-49
2021/01/19 03:24:40;;;;;;;29.08;19.63;;;2.20;88.20;;;;;;5049643;28;20040;-48
2021/01/19 03:27:07;;;;;;;30.38;20.63;;;1.70;87.90;;;;;;5081139;28;20040;-53
2021/01/19 03:29:33;;;;;;;29.55;19.58;;;1.70;85.00;;;;;;5074573;28;20044;-54
2021/01/19 03:31:59;;;;;;;27.50;17.73;;;2.30;87.60;;;;;;5059906;28;20492;-48
2021/01/19 03:34:24;;;;;;;30.15;20.35;;;2.40;84.60;;;;;;5074327;28;20039;-51
2021/01/19 03:36:50;;;;;;;26.48;19.77;;;2.80;87.10;;;;;;5074279;28;20049;-46
2021/01/19 03:39:16;;;;;;;28.48;19.20;;;2.90;79.80;;;;;;5074110;28;20127;-50
2021/01/19 03:41:42;;;;;;;30.13;19.38;;;3.00;79.70;;;;;;5076841;28;20021;-50
2021/01/19 03:44:08;;;;;;;27.20;20.20;;;3.10;80.30;;;;;;5077470;28;20031;-49
2021/01/19 03:46:33;;;;;;;29.73;20.38;;;3.10;80.40;;;;;;5029873;28;20045;-50
2021/01/19 03:48:59;;;;;;;35.25;24.08;;;3.30;88.60;;;;;;5086798;28;20035;-52
2021/01/19 03:51:25;;;;;;;47.25;30.65;;;3.40;81.80;;;;;;5047423;28;20052;-49
2021/01/19 03:53:54;;;;;;;43.83;29.50;;;3.20;79.70;;;;;;5081284;28;20043;-48
2021/01/19 03:56:20;;;;;;;50.92;31.83;;;3.30;80.60;;;;;;5081674;28;20128;-48
2021/01/19 03:58:47;;;;;;;81.00;48.53;;;3.50;80.30;;;;;;5073984;28;20136;-52
2021/01/19 04:01:12;;;;;;;81.28;44.70;;;3.50;79.90;;;;;;5073755;28;20032;-45
2021/01/19 04:03:39;;;;;;;60.45;35.08;;;3.40;79.30;;;;;;5073968;28;20115;-54
2021/01/19 04:06:08;;;;;;;58.13;35.10;;;3.50;78.70;;;;;;5073832;28;20127;-52
2021/01/19 04:08:35;;;;;;;72.05;41.80;;;3.60;78.80;;;;;;5038503;28;20048;-56
2021/01/19 04:11:02;;;;;;;78.00;43.97;;;3.60;80.40;;;;;;5073771;28;20055;-54
2021/01/19 04:13:27;;;;;;;71.20;41.88;;;3.50;81.20;;;;;;5073557;28;20055;-54
2021/01/19 04:15:53;;;;;;;70.53;39.28;;;3.50;82.10;;;;;;5073668;28;20028;-53
2021/01/19 04:18:19;;;;;;;68.70;41.33;;;3.70;82.30;;;;;;5038433;28;20037;-53
2021/01/19 04:20:45;;;;;;;61.42;37.20;;;3.60;82.20;;;;;;5073386;28;20032;-53
2021/01/19 04:23:14;;;;;;;44.60;28.17;;;3.60;81.70;;;;;;5073265;28;20369;-49
2021/01/19 04:25:41;;;;;;;64.57;39.30;;;3.10;79.40;;;;;;5073688;28;20093;-55
2021/01/19 04:28:07;;;;;;;79.40;46.22;;;3.20;80.60;;;;;;5073528;28;20030;-50
2021/01/19 04:30:33;;;;;;;102.47;56.22;;;3.10;80.80;;;;;;5072684;28;20123;-48
2021/01/19 04:32:58;;;;;;;96.10;54.17;;;3.10;79.90;;;;;;5073259;28;20480;-56
2021/01/19 04:35:24;;;;;;;84.25;49.28;;;3.20;79.80;;;;;;5073353;28;20465;-48
2021/01/19 04:37:50;;;;;;;87.00;50.38;;;3.30;80.20;;;;;;5038185;28;20044;-48
2021/01/19 04:40:16;;;;;;;94.97;56.13;;;3.40;79.90;;;;;;5073589;28;20033;-50
2021/01/19 04:42:41;;;;;;;95.10;53.85;;;3.30;80.00;;;;;;5032757;28;20040;-51
2021/01/19 04:45:09;;;;;;;76.65;47.55;;;3.30;80.00;;;;;;5077922;28;20578;-49
2021/01/19 04:47:36;;;;;;;70.53;43.13;;;3.30;80.10;;;;;;5088099;28;20043;-49
2021/01/19 04:50:12;;;;;;;122.65;71.55;;;3.30;79.50;;;;;;5073259;28;20484;-52
2021/01/19 04:52:43;;;;;;;133.80;79.90;;;3.20;80.50;;;;;;5037763;28;20443;-50
2021/01/19 04:55:19;;;;;;;138.20;79.43;;;3.20;79.50;;;;;;5073465;28;20029;-51
2021/01/19 04:57:59;;;;;;;115.30;68.45;;;3.30;79.20;;;;;;5073575;28;20030;-52
2021/01/19 05:00:30;;;;;;;126.53;73.65;;;3.10;79.80;;;;;;5002867;28;20098;-55
2021/01/19 05:03:13;;;;;;;132.88;74.07;;;3.10;79.90;;;;;;5086463;28;20075;-50
2021/01/19 05:05:39;;;;;;;111.28;67.50;;;3.00;80.60;;;;;;5084889;28;20422;-49
2021/01/19 05:08:17;;;;;;;121.15;74.40;;;3.00;80.20;;;;;;5073191;28;20036;-52
2021/01/19 05:11:00;;;;;;;128.20;77.25;;;3.00;80.60;;;;;;5080601;28;20177;-50
2021/01/19 05:13:38;;;;;;;132.75;76.95;;;3.20;79.80;;;;;;5086035;28;20047;-52
2021/01/19 05:16:04;;;;;;;163.32;92.85;;;3.20;79.90;;;;;;5037578;28;20036;-49
2021/01/19 05:18:31;;;;;;;176.15;100.13;;;3.20;80.20;;;;;;5073015;28;20364;-54
2021/01/19 05:21:00;;;;;;;169.38;96.00;;;3.30;79.70;;;;;;5072600;28;20488;-54
2021/01/19 05:23:27;;;;;;;125.78;71.35;;;3.40;79.30;;;;;;5072806;28;20025;-50
2021/01/19 05:25:57;;;;;;;126.63;75.88;;;3.40;79.50;;;;;;5072747;28;20063;-47
2021/01/19 05:28:51;;;;;;;108.47;61.20;;;3.40;79.50;;;;;;5072746;28;20032;-54
2021/01/19 05:31:25;;;;;;;163.27;83.97;;;2.90;78.70;;;;;;5075162;28;20484;-54
2021/01/19 05:33:58;;;;;;;127.10;71.57;;;2.80;80.60;;;;;;5085249;28;20036;-54
2021/01/19 05:36:26;;;;;;;90.20;54.47;;;3.00;80.40;;;;;;5073502;28;20468;-53
2021/01/19 05:38:56;;;;;;;77.13;47.35;;;3.10;79.60;;;;;;5072428;28;20141;-51
2021/01/19 05:41:35;;;;;;;77.25;49.05;;;3.20;80.40;;;;;;5072602;28;20050;-49
2021/01/19 05:44:30;;;;;;;67.20;40.08;;;3.30;81.30;;;;;;5074388;28;20040;-53
2021/01/19 05:46:59;;;;;;;65.72;40.00;;;3.40;79.70;;;;;;5073181;28;20032;-51
2021/01/19 05:49:25;;;;;;;80.03;45.75;;;3.50;79.90;;;;;;5076185;28;20138;-56
2021/01/19 05:52:13;;;;;;;97.10;56.80;;;3.80;82.50;;;;;;5040631;28;20072;-52
2021/01/19 05:54:44;;;;;;;88.95;51.58;;;3.70;82.00;;;;;;5076410;28;20029;-54
2021/01/19 05:57:20;;;;;;;98.63;61.08;;;2.90;79.20;;;;;;5058068;28;20365;-52
2021/01/19 05:59:47;;;;;;;106.43;66.63;;;2.50;82.70;;;;;;5057803;28;20040;-52
2021/01/19 06:02:18;;;;;;;82.05;51.13;;;2.40;84.70;;;;;;5076005;28;20432;-50
2021/01/19 06:04:54;;;;;;;81.45;55.22;;;2.40;85.10;;;;;;5075761;28;20419;-53
2021/01/19 06:07:25;;;;;;;78.13;49.85;;;2.00;85.10;;;;;;5076039;28;20032;-51
2021/01/19 06:09:52;;;;;;;80.28;49.25;;;2.20;89.50;;;;;;5075745;28;20591;-53
2021/01/19 06:12:19;;;;;;;97.55;62.00;;;1.90;85.80;;;;;;5075537;28;20113;-52
2021/01/19 06:14:49;;;;;;;81.75;50.38;;;2.00;86.80;;;;;;5075799;28;20028;-50
2021/01/19 06:17:23;;;;;;;72.15;45.60;;;2.30;84.40;;;;;;5075456;28;20068;-55
2021/01/19 06:19:51;;;;;;;77.90;48.97;;;2.50;84.00;;;;;;5075466;28;20051;-47
2021/01/19 06:22:20;;;;;;;76.50;47.88;;;2.50;83.00;;;;;;5075518;28;20071;-48
2021/01/19 06:24:48;;;;;;;104.63;71.28;;;2.60;83.20;;;;;;5075656;28;20111;-52
2021/01/19 06:27:27;;;;;;;76.63;49.33;;;3.10;91.60;;;;;;5056845;28;20450;-52
2021/01/19 06:29:59;;;;;;;76.15;47.00;;;3.00;82.10;;;;;;5075215;28;20071;-52
2021/01/19 06:32:26;;;;;;;68.68;43.45;;;2.80;81.80;;;;;;5075517;28;20465;-49
2021/01/19 06:34:52;;;;;;;66.72;40.20;;;2.30;85.80;;;;;;5075168;28;20190;-49
2021/01/19 06:37:25;;;;;;;65.50;42.33;;;1.70;85.40;;;;;;5075586;28;20039;-50
2021/01/19 06:39:58;;;;;;;71.55;51.22;;;1.90;86.70;;;;;;5075285;28;20476;-48
2021/01/19 06:42:32;;;;;;;93.03;56.25;;;2.40;85.30;;;;;;5074919;28;20473;-49
2021/01/19 06:44:59;;;;;;;75.43;48.08;;;2.80;83.80;;;;;;5075321;28;20059;-49
2021/01/19 06:47:26;;;;;;;75.63;47.67;;;3.10;82.80;;;;;;5057014;28;20445;-53
2021/01/19 06:49:53;;;;;;;117.28;69.10;;;3.20;82.00;;;;;;5075053;28;20078;-50
2021/01/19 06:52:20;;;;;;;93.32;59.67;;;3.40;81.90;;;;;;5075063;28;20037;-51
2021/01/19 06:55:02;;;;;;;85.18;58.45;;;3.60;80.80;;;;;;5074880;28;20162;-50
2021/01/19 06:58:02;;;;;;;66.37;46.10;;;3.40;80.00;;;;;;5074807;28;20037;-55
2021/01/19 07:00:39;;;;;;;69.72;48.13;;;2.80;81.00;;;;;;5072523;28;20287;-53
2021/01/19 07:03:22;;;;;;;59.03;41.65;;;3.10;82.30;;;;;;5075257;28;20021;-48
2021/01/19 07:05:53;;;;;;;54.55;39.15;;;3.30;80.70;;;;;;5074633;28;20119;-49
2021/01/19 07:08:35;;;;;;;66.22;43.67;;;2.90;80.60;;;;;;5022591;28;20468;-51
2021/01/19 07:11:33;;;;;;;50.92;35.05;;;2.50;82.30;;;;;;5075089;28;20024;-50
2021/01/19 07:14:29;;;;;;;51.83;35.55;;;2.30;83.10;;;;;;5073489;28;20357;-46
2021/01/19 07:17:00;;;;;;;58.72;39.55;;;2.90;87.70;;;;;;5074662;28;20086;-52
2021/01/19 07:19:46;;;;;;;69.40;44.92;;;3.00;81.70;;;;;;5074559;28;20037;-50
2021/01/19 07:22:26;;;;;;;94.05;59.83;;;3.20;80.80;;;;;;5074464;28;20062;-53
2021/01/19 07:24:52;;;;;;;77.28;50.78;;;3.30;79.70;;;;;;5039239;28;20119;-53
2021/01/19 07:27:20;;;;;;;104.78;75.50;;;3.40;79.20;;;;;;5074264;28;20159;-47
2021/01/19 07:29:47;;;;;;;57.97;39.17;;;3.10;79.30;;;;;;5074572;28;20044;-52
2021/01/19 07:32:30;;;;;;;70.70;46.97;;;2.80;79.40;;;;;;5038645;28;20118;-49
2021/01/19 07:34:59;;;;;;;68.63;44.28;;;4.10;80.40;;;;;;5074333;28;20047;-50
2021/01/19 07:37:42;;;;;;;74.15;45.67;;;5.60;95.40;;;;;;5084990;28;20109;-50
2021/01/19 07:40:21;;;;;;;73.90;46.92;;;7.10;70.30;;;;;;5074178;28;20035;-50
2021/01/19 07:42:48;;;;;;;76.15;47.05;;;9.50;68.40;;;;;;5038540;28;20036;-53
2021/01/19 07:45:14;;;;;;;95.45;62.75;;;12.00;64.40;;;;;;5043338;28;20040;-55
2021/01/19 07:47:45;;;;;;;151.80;82.55;;;12.90;50.40;;;;;;5083738;28;20086;-47
2021/01/19 07:50:15;;;;;;;120.05;70.18;;;13.20;50.50;;;;;;5083464;28;20106;-51
2021/01/19 07:52:43;;;;;;;115.97;75.70;;;13.50;48.40;;;;;;5084441;28;20069;-53
2021/01/19 07:55:23;;;;;;;90.38;62.60;;;14.50;45.80;;;;;;5079484;28;20028;-51
2021/01/19 07:57:52;;;;;;;81.15;56.80;;;13.40;46.50;;;;;;5073718;28;20032;-44
2021/01/19 08:00:26;;;;;;;72.53;53.50;;;13.70;47.70;;;;;;5073973;28;20064;-50
2021/01/19 08:03:05;;;;;;;79.68;55.97;;;13.20;44.90;;;;;;5073606;28;20043;-50
2021/01/19 08:05:31;;;;;;;49.53;38.88;;;12.60;45.30;;;;;;5083880;28;20032;-44
2021/01/19 08:07:57;;;;;;;46.88;36.22;;;11.40;47.30;;;;;;5081410;28;20047;-53
2021/01/19 08:10:32;;;;;;;49.28;35.70;;;11.40;48.30;;;;;;5094108;28;20464;-50
2021/01/19 08:12:59;;;;;;;603.70;137.10;;;12.90;48.20;;;;;;5058208;28;20055;-50
2021/01/19 08:15:32;;;;;;;71.68;45.28;;;14.40;44.90;;;;;;5093661;28;20036;-50
2021/01/19 08:18:00;;;;;;;63.88;46.13;;;15.60;40.80;;;;;;5056105;28;20043;-54
2021/01/19 08:20:28;;;;;;;54.92;44.50;;;16.20;39.70;;;;;;5038330;28;20051;-48
2021/01/19 08:22:57;;;;;;;58.63;45.17;;;18.00;39.00;;;;;;5038372;28;20395;-50
2021/01/19 08:25:24;;;;;;;54.40;42.55;;;18.20;37.70;;;;;;5072507;28;20032;-49
2021/01/19 08:27:50;;;;;;;65.47;52.00;;;20.00;35.30;;;;;;5073069;28;20024;-51
2021/01/19 08:30:26;;;;;;;47.72;39.00;;;20.70;33.00;;;;;;5039776;28;20540;-51
2021/01/19 08:32:53;;;;;;;47.42;35.88;;;21.00;32.40;;;;;;5028497;28;20472;-52
2021/01/19 08:35:20;;;;;;;42.58;36.85;;;20.70;33.00;;;;;;5081878;28;20123;-45
2021/01/19 08:37:59;;;;;;;53.47;44.10;;;21.60;33.60;;;;;;5093709;28;20376;-48
2021/01/19 08:40:26;;;;;;;73.05;53.28;;;21.70;30.70;;;;;;5057714;28;20044;-49
2021/01/19 08:42:53;;;;;;;65.05;49.88;;;22.30;30.20;;;;;;5093606;28;20059;-49
2021/01/19 08:45:24;;;;;;;62.70;52.10;;;21.00;29.50;;;;;;5093759;28;20060;-52
2021/01/19 08:47:57;;;;;;;66.50;50.25;;;21.30;30.20;;;;;;5052588;28;20040;-47
2021/01/19 08:50:27;;;;;;;61.95;49.63;;;21.70;30.20;;;;;;5082862;28;20060;-47
2021/01/19 08:52:53;;;;;;;82.80;59.85;;;22.50;29.90;;;;;;5086250;28;20040;-47
2021/01/19 08:55:26;;;;;;;64.57;53.53;;;22.50;38.60;;;;;;5093541;28;20039;-43
2021/01/19 08:57:59;;;;;;;63.58;52.92;;;23.20;35.60;;;;;;5090390;28;20034;-42
2021/01/19 09:00:38;;;;;;;71.07;59.65;;;23.10;29.10;;;;;;5093511;28;20111;-51
2021/01/19 09:03:12;;;;;;;71.95;56.53;;;23.10;31.70;;;;;;5093324;28;20121;-47
2021/01/19 09:05:38;;;;;;;65.97;52.55;;;;;;;;;;5057417;28;20123;-49
2021/01/19 09:08:12;;;;;;;63.65;53.88;;;;;;;;;;5041822;28;20040;-50
2021/01/19 09:10:38;;;;;;;63.60;53.42;;;;;;;;;;5093059;28;20028;-49
2021/01/19 09:13:05;;;;;;;74.85;62.78;;;21.90;55.10;;;;;;5093331;28;20071;-51
2021/01/19 09:15:43;;;;;;;82.20;65.13;;;22.70;29.30;;;;;;5093089;28;20480;-46
2021/01/19 09:18:11;;;;;;;76.85;65.78;;;22.60;28.90;;;;;;5095262;28;20035;-46
2021/01/19 09:20:37;;;;;;;71.53;57.67;;;22.50;29.50;;;;;;5097128;28;20472;-46
2021/01/19 09:23:15;;;;;;;61.35;51.38;;;22.70;29.20;;;;;;5054489;28;20079;-48
2021/01/19 09:25:47;;;;;;;59.53;47.10;;;22.60;29.10;;;;;;4994785;28;20575;-50
2021/01/19 09:28:14;;;;;;;52.40;44.10;;;;;;;;;;4995094;28;20035;-44
2021/01/19 09:30:40;;;;;;;51.30;42.00;;;20.70;29.70;;;;;;4992452;28;20394;-46
2021/01/19 09:33:08;;;;;;;43.17;38.63;;;19.90;31.10;;;;;;4962393;28;20475;-45
2021/01/19 09:35:35;;;;;;;42.42;37.83;;;20.10;31.00;;;;;;4995109;28;20152;-48
2021/01/19 09:38:02;;;;;;;51.47;46.28;;;;;;;;;;4994975;28;20427;-46
2021/01/19 09:40:31;;;;;;;53.28;48.10;;;;;;;;;;4994783;28;20144;-47
2021/01/19 09:42:58;;;;;;;49.53;41.47;;;;;;;;;;4994786;28;20069;-48
2021/01/19 09:45:24;;;;;;;45.60;41.38;;;18.90;36.40;;;;;;4994840;28;20038;-54
2021/01/19 09:47:51;;;;;;;43.67;39.55;;;19.40;33.30;;;;;;4994570;28;20038;-44
2021/01/19 09:50:16;;;;;;;44.17;39.95;;;18.70;34.00;;;;;;4994880;28;20038;-49
2021/01/19 09:52:46;;;;;;;52.35;47.47;;;18.60;33.70;;;;;;4994718;28;20368;-50
2021/01/19 09:55:14;;;;;;;48.38;43.88;;;18.90;33.70;;;;;;5033295;28;20497;-47
2021/01/19 09:57:40;;;;;;;45.22;40.63;;;19.50;33.20;;;;;;5024967;28;20039;-46
2021/01/19 10:00:08;;;;;;;48.00;43.78;;;20.60;32.00;;;;;;5096391;28;20020;-50
2021/01/19 10:02:34;;;;;;;55.28;50.28;;;21.00;31.30;;;;;;5044512;28;20038;-50
2021/01/19 10:05:04;;;;;;;51.17;46.53;;;21.50;31.00;;;;;;5060447;28;20040;-50
2021/01/19 10:07:30;;;;;;;47.35;42.80;;;21.40;30.90;;;;;;5044309;28;20369;-49
2021/01/19 10:10:14;;;;;;;49.17;44.75;;;21.40;31.20;;;;;;5060267;28;20459;-50
2021/01/19 10:12:40;;;;;;;40.67;36.38;;;21.40;30.70;;;;;;5044034;28;20426;-44
2021/01/19 10:15:08;;;;;;;54.13;49.78;;;21.90;30.10;;;;;;5096560;28;20063;-47
2021/01/19 10:17:35;;;;;;;53.92;49.50;;;21.70;30.20;;;;;;5026268;28;20047;-47
2021/01/19 10:20:06;;;;;;;59.83;55.53;;;21.70;30.50;;;;;;5095806;28;20031;-50
2021/01/19 10:22:32;;;;;;;54.15;49.78;;;22.40;30.60;;;;;;5095889;28;20032;-46
2021/01/19 10:24:58;;;;;;;99.40;92.90;;;22.40;29.90;;;;;;5095526;28;20465;-46
2021/01/19 10:27:25;;;;;;;90.93;84.80;;;;;;;;;;5077931;28;20024;-48
2021/01/19 10:29:51;;;;;;;103.60;97.25;;;22.50;29.20;;;;;;5042758;28;20044;-51
2021/01/19 10:32:17;;;;;;;48.17;44.28;;;20.70;30.70;;;;;;5095509;28;20411;-49
2021/01/19 10:34:45;;;;;;;93.10;87.38;;;21.40;30.60;;;;;;5095677;28;20032;-50
2021/01/19 10:37:11;;;;;;;77.03;71.75;;;21.10;30.20;;;;;;5059503;28;20119;-49
2021/01/19 10:39:57;;;;;;;60.20;55.80;;;21.10;30.60;;;;;;5095258;28;20513;-49
2021/01/19 10:42:30;;;;;;;77.40;72.22;;;21.40;32.80;;;;;;5095397;28;20032;-48
2021/01/19 10:45:00;;;;;;;100.60;94.32;;;20.30;31.70;;;;;;5095354;28;20036;-50
2021/01/19 10:47:28;;;;;;;74.60;69.00;;;19.50;31.90;;;;;;5095558;28;20427;-44
2021/01/19 10:49:54;;;;;;;61.78;55.97;;;19.50;33.00;;;;;;5095487;28;20028;-51
2021/01/19 10:52:20;;;;;;;49.97;45.28;;;20.30;33.10;;;;;;5095115;28;20450;-48
2021/01/19 10:54:45;;;;;;;44.13;39.78;;;20.80;32.00;;;;;;5059347;28;20119;-49
2021/01/19 10:57:11;;;;;;;44.85;40.80;;;21.50;33.40;;;;;;5095351;28;20024;-51
2021/01/19 10:59:37;;;;;;;44.20;40.42;;;20.90;36.40;;;;;;5095279;28;20496;-49
2021/01/19 11:02:04;;;;;;;40.65;37.15;;;20.80;39.50;;;;;;5088195;28;20105;-46
2021/01/19 11:04:31;;;;;;;40.25;36.38;;;21.10;35.50;;;;;;5089710;28;20039;-46
2021/01/19 11:06:57;;;;;;;53.35;47.70;;;;;;;;;;5094852;28;20056;-49
2021/01/19 11:09:23;;;;;;;70.93;63.90;;;21.40;55.70;;;;;;5095038;28;20028;-46
2021/01/19 11:11:49;;;;;;;98.10;87.22;;;21.30;32.10;;;;;;5059470;28;20036;-51
2021/01/19 11:14:15;;;;;;;108.68;93.28;;;21.40;31.70;;;;;;5095164;28;20059;-47
2021/01/19 11:16:42;;;;;;;118.47;98.00;;;21.40;31.40;;;;;;5059114;28;20167;-46
2021/01/19 11:19:11;;;;;;;105.70;93.63;;;21.50;31.70;;;;;;5094746;28;20040;-46
2021/01/19 11:21:38;;;;;;;81.32;72.40;;;21.60;31.60;;;;;;5094809;28;20034;-45
2021/01/19 11:24:06;;;;;;;74.43;66.72;;;21.70;34.50;;;;;;5058783;28;20105;-47
2021/01/19 11:26:34;;;;;;;57.78;51.75;;;21.70;33.70;;;;;;5094460;28;20027;-46
2021/01/19 11:29:00;;;;;;;76.40;67.20;;;21.40;32.40;;;;;;5091401;28;20349;-50
2021/01/19 11:31:28;;;;;;;57.40;51.28;;;21.10;31.50;;;;;;5093948;28;20052;-49
2021/01/19 11:33:58;;;;;;;54.75;48.85;;;21.00;31.00;;;;;;5046594;28;20035;-49
2021/01/19 11:36:26;;;;;;;77.40;67.43;;;21.10;31.10;;;;;;5065364;28;20044;-46
2021/01/19 11:38:53;;;;;;;42.40;37.90;;;20.90;31.30;;;;;;5082284;28;20103;-44
2021/01/19 11:41:22;;;;;;;38.95;34.20;;;20.50;31.00;;;;;;5082846;28;20020;-46
2021/01/19 11:43:48;;;;;;;17.73;15.93;;;20.50;31.30;;;;;;5033346;28;20029;-49
2021/01/19 11:46:18;;;;;;;16.77;15.00;;;;;;;;;;5082213;28;20518;-46
2021/01/19 11:48:44;;;;;;;19.92;17.85;;;19.90;31.00;;;;;;5083251;28;20077;-49
2021/01/19 11:51:10;;;;;;;16.83;14.65;;;;;;;;;;5084267;28;20055;-48
2021/01/19 11:53:36;;;;;;;18.67;15.52;;;19.50;31.70;;;;;;5021385;28;20040;-47
2021/01/19 11:56:02;;;;;;;16.33;14.50;;;18.70;33.10;;;;;;5039607;28;20107;-47
2021/01/19 11:58:29;;;;;;;12.50;11.20;;;;;;;;;;5047704;28;20036;-48
2021/01/19 12:00:55;;;;;;;14.90;13.38;;;16.70;34.90;;;;;;5084210;28;20020;-47
2021/01/19 12:03:21;;;;;;;9.43;8.32;;;16.90;36.70;;;;;;5083045;28;20095;-44
2021/01/19 12:05:46;;;;;;;10.02;7.88;;;16.30;36.80;;;;;;5045946;28;20040;-48
2021/01/19 12:08:13;;;;;;;10.15;7.20;;;15.20;38.60;;;;;;5017944;28;20431;-51
2021/01/19 12:10:43;;;;;;;12.52;10.65;;;15.20;38.90;;;;;;5051440;28;20043;-45
2021/01/19 12:13:10;;;;;;;11.35;9.77;;;14.50;39.40;;;;;;5051217;28;20503;-46
2021/01/19 12:15:36;;;;;;;13.30;10.63;;;14.40;40.20;;;;;;5051142;28;20044;-46
2021/01/19 12:18:02;;;;;;;13.25;8.48;;;14.40;41.00;;;;;;5001684;28;20072;-47
2021/01/19 12:20:28;;;;;;;11.00;7.40;;;14.90;40.50;;;;;;5051456;28;20398;-47
2021/01/19 12:22:53;;;;;;;10.95;7.25;;;15.90;38.90;;;;;;5018027;28;20381;-44
2021/01/19 12:25:19;;;;;;;12.50;7.03;;;16.50;46.40;;;;;;5051111;28;20029;-51
2021/01/19 12:27:48;;;;;;;9.00;6.07;;;16.70;38.30;;;;;;5051344;28;20087;-50
2021/01/19 12:30:14;;;;;;;20.30;10.70;;;16.60;38.40;;;;;;5050867;28;20063;-48
2021/01/19 12:32:40;;;;;;;43.33;27.60;;;16.50;38.20;;;;;;5018185;28;20128;-46
2021/01/19 12:35:06;;;;;;;54.83;37.92;;;15.40;38.40;;;;;;5051382;28;20116;-46
2021/01/19 12:37:32;;;;;;;22.77;18.85;;;15.20;39.10;;;;;;5018246;28;20503;-47
2021/01/19 12:39:58;;;;;;;25.88;19.83;;;14.00;40.80;;;;;;5053572;28;20025;-47
2021/01/19 12:42:24;;;;;;;41.28;29.13;;;12.90;43.70;;;;;;5047322;28;20108;-45
2021/01/19 12:44:49;;;;;;;47.95;32.35;;;12.80;44.50;;;;;;5050515;28;20041;-51
2021/01/19 12:47:16;;;;;;;24.98;19.35;;;12.30;45.40;;;;;;5052917;28;20071;-46
2021/01/19 12:49:41;;;;;;;48.15;34.40;;;12.40;45.90;;;;;;5053115;28;20032;-48
2021/01/19 12:52:10;;;;;;;43.10;32.85;;;12.20;45.80;;;;;;5051521;28;20033;-47